createdAt,value
2022-12-31T00:00:19.593Z,98744.78
2022-12-31T00:02:46.571Z,98741.06
2022-12-31T00:05:14.648Z,98752.41
2022-12-31T00:10:07.947Z,98755.84
2022-12-31T00:12:34.709Z,98748.09
2022-12-31T00:15:01.701Z,98737.84
2022-12-31T00:17:28.575Z,98765.44
2022-12-31T00:19:55.389Z,98745.66
2022-12-31T00:22:22.224Z,98755.41
2022-12-31T00:24:49.072Z,98759.03
2022-12-31T00:27:16.729Z,98763.13
2022-12-31T00:29:43.586Z,98755.53
2022-12-31T00:32:10.551Z,98760.34
2022-12-31T00:34:37.342Z,98767.03
2022-12-31T00:37:04.203Z,98766.94
2022-12-31T00:39:30.993Z,98782.53
2022-12-31T00:41:57.780Z,98786.78
2022-12-31T00:44:24.674Z,98795.78
2022-12-31T00:46:51.501Z,98775.84
2022-12-31T00:49:18.347Z,98775.47
2022-12-31T00:51:46.615Z,98777.69
2022-12-31T00:54:14.120Z,98789.38
2022-12-31T00:56:40.871Z,98810.94
2022-12-31T00:59:07.666Z,98792.53
2022-12-31T01:01:38.455Z,98799.34
2022-12-31T01:04:16.548Z,98807.41
2022-12-31T01:06:44.093Z,98815.09
2022-12-31T01:09:12.860Z,98822.66
2022-12-31T01:11:39.666Z,98822.25
2022-12-31T01:14:13.615Z,98823.19
2022-12-31T01:16:48.702Z,98815.94
2022-12-31T01:19:23.222Z,98818.66
2022-12-31T01:21:51.402Z,98823.09
2022-12-31T01:24:18.829Z,98828.41
2022-12-31T01:26:46.571Z,98824.50
2022-12-31T01:29:14.461Z,98833.31
2022-12-31T01:31:41.641Z,98832.41
2022-12-31T01:34:08.533Z,98841.78
2022-12-31T01:36:38.115Z,98851.81
2022-12-31T01:39:08.051Z,98846.78
2022-12-31T01:41:40.066Z,98842.31
2022-12-31T01:44:30.060Z,98847.25
2022-12-31T01:47:00.996Z,98848.25
2022-12-31T01:49:45.857Z,98849.09
2022-12-31T01:52:31.435Z,98851.06
2022-12-31T01:55:20.017Z,98864.16
2022-12-31T01:57:50.226Z,98828.84
2022-12-31T02:00:17.702Z,98857.28
2022-12-31T02:02:45.027Z,98865.38
2022-12-31T02:05:25.510Z,98867.44
2022-12-31T02:07:54.504Z,98859.88
2022-12-31T02:10:21.412Z,98859.78
2022-12-31T02:12:48.811Z,98837.78
2022-12-31T02:15:16.104Z,98862.22
2022-12-31T02:17:54.911Z,98858.69
2022-12-31T02:21:15.730Z,98865.38
2022-12-31T02:24:04.433Z,98856.94
2022-12-31T02:26:56.105Z,98874.84
2022-12-31T02:29:48.485Z,98874.09
2022-12-31T02:32:39.275Z,98869.63
2022-12-31T02:35:16.307Z,98888.97
2022-12-31T02:37:48.298Z,98876.53
2022-12-31T02:40:19.210Z,98865.03
2022-12-31T02:42:51.524Z,98882.09
2022-12-31T02:45:39.312Z,98879.22
2022-12-31T02:48:40.891Z,98872.16
2022-12-31T02:51:38.008Z,98870.56
2022-12-31T02:54:18.627Z,98869.63
2022-12-31T02:57:12.079Z,98879.84
2022-12-31T03:00:22.451Z,98869.63
2022-12-31T03:02:51.545Z,98862.78
2022-12-31T03:05:23.534Z,98867.03
2022-12-31T03:07:50.734Z,98865.72
2022-12-31T03:10:17.587Z,98874.38
2022-12-31T03:12:48.318Z,98869.25
2022-12-31T03:15:31.932Z,98853.28
2022-12-31T03:18:05.234Z,98864.69
2022-12-31T03:20:59.067Z,98863.03
2022-12-31T03:23:31.668Z,98866.41
2022-12-31T03:25:59.886Z,98859.56
2022-12-31T03:28:30.195Z,98851.53
2022-12-31T03:31:01.533Z,98863.75
2022-12-31T03:33:46.575Z,98871.72
2022-12-31T03:36:15.201Z,98883.56
2022-12-31T03:38:42.292Z,98883.56
2022-12-31T03:41:11.566Z,98906.41
2022-12-31T03:43:38.566Z,98901.69
2022-12-31T03:46:05.543Z,98898.81
2022-12-31T03:48:32.401Z,98891.91
2022-12-31T03:50:59.156Z,98908.94
2022-12-31T03:53:26.087Z,98911.44
2022-12-31T03:55:53.684Z,98890.47
2022-12-31T03:58:21.665Z,98910.69
2022-12-31T04:00:48.503Z,98891.53
2022-12-31T04:03:15.345Z,98912.75
2022-12-31T04:05:42.189Z,98911.84
2022-12-31T04:08:08.942Z,98915.09
2022-12-31T04:10:35.784Z,98919.66
2022-12-31T04:13:04.621Z,98923.38
2022-12-31T04:15:31.747Z,98926.06
2022-12-31T04:17:58.516Z,98915.75
2022-12-31T04:20:25.365Z,98913.47
2022-12-31T04:22:52.172Z,98914.59
2022-12-31T04:25:19.022Z,98915.91
2022-12-31T04:27:45.779Z,98917.59
2022-12-31T04:30:13.522Z,98928.56
2022-12-31T04:32:40.494Z,98939.88
2022-12-31T04:35:08.409Z,98937.66
2022-12-31T04:37:35.205Z,98925.19
2022-12-31T04:40:06.286Z,98899.78
2022-12-31T04:42:34.847Z,98924.84
2022-12-31T04:45:01.725Z,98928.22
2022-12-31T04:47:28.548Z,98929.66
2022-12-31T04:49:55.500Z,98945.59
2022-12-31T04:52:22.856Z,98948.25
2022-12-31T04:54:49.709Z,98952.53
2022-12-31T04:57:16.767Z,98945.81
2022-12-31T04:59:43.596Z,98945.72
2022-12-31T05:02:10.500Z,98959.25
2022-12-31T05:04:37.414Z,98947.53
2022-12-31T05:07:04.324Z,98946.66
2022-12-31T05:09:31.228Z,98966.69
2022-12-31T05:11:58.221Z,98970.41
2022-12-31T05:14:25.312Z,98964.81
2022-12-31T05:16:52.519Z,98935.34
2022-12-31T05:19:19.386Z,98962.00
2022-12-31T05:22:06.095Z,98960.53
2022-12-31T05:24:32.873Z,98978.78
2022-12-31T05:26:59.992Z,98949.47
2022-12-31T05:29:26.947Z,98961.47
2022-12-31T05:31:53.813Z,98945.16
2022-12-31T05:34:20.705Z,98970.84
2022-12-31T05:36:47.471Z,98964.19
2022-12-31T05:39:14.302Z,98956.50
2022-12-31T05:41:41.054Z,98962.94
2022-12-31T05:44:07.801Z,98959.72
2022-12-31T05:46:34.601Z,98966.28
2022-12-31T05:49:01.369Z,98961.28
2022-12-31T05:51:28.131Z,98942.69
2022-12-31T05:53:54.997Z,98933.38
2022-12-31T05:56:21.808Z,98936.59
2022-12-31T05:58:48.559Z,98951.19
2022-12-31T06:01:15.447Z,98948.88
2022-12-31T06:03:42.385Z,98965.56
2022-12-31T06:06:09.221Z,98972.53
2022-12-31T06:08:35.998Z,98958.84
2022-12-31T06:11:03.064Z,98964.38
2022-12-31T06:13:29.893Z,98965.13
2022-12-31T06:15:56.867Z,98977.41
2022-12-31T06:18:23.667Z,98974.06
2022-12-31T06:20:50.485Z,98979.25
2022-12-31T06:23:17.234Z,98994.34
2022-12-31T06:25:44.125Z,98989.13
2022-12-31T06:28:16.163Z,98993.41
2022-12-31T06:30:47.185Z,98987.47
2022-12-31T06:33:14.172Z,99000.09
2022-12-31T06:35:41.000Z,98999.56
2022-12-31T06:38:07.804Z,98999.56
2022-12-31T06:40:37.610Z,99004.03
2022-12-31T06:43:04.433Z,99004.47
2022-12-31T06:45:31.309Z,99000.09
2022-12-31T06:47:58.068Z,99011.38
2022-12-31T06:50:24.819Z,99014.09
2022-12-31T06:52:51.602Z,99024.88
2022-12-31T06:55:18.679Z,99019.09
2022-12-31T06:57:45.884Z,99015.94
2022-12-31T07:00:13.680Z,99010.41
2022-12-31T07:03:16.331Z,99018.91
2022-12-31T07:06:01.619Z,99004.22
2022-12-31T07:09:09.968Z,99005.75
2022-12-31T07:11:56.326Z,98998.69
2022-12-31T07:14:41.839Z,98993.28
2022-12-31T07:17:29.042Z,99006.81
2022-12-31T07:20:01.272Z,99018.06
2022-12-31T07:22:28.366Z,99013.03
2022-12-31T07:24:55.544Z,99004.97
2022-12-31T07:27:50.086Z,99027.28
2022-12-31T07:30:46.789Z,99022.47
2022-12-31T07:33:46.824Z,99026.72
2022-12-31T07:37:16.995Z,99023.56
2022-12-31T07:40:04.334Z,99034.00
2022-12-31T07:42:44.599Z,99032.34
2022-12-31T07:45:25.165Z,99042.94
2022-12-31T07:47:54.296Z,99041.09
2022-12-31T07:50:24.810Z,99042.00
2022-12-31T07:52:51.970Z,99039.41
2022-12-31T07:55:18.807Z,99046.38
2022-12-31T07:58:06.819Z,99057.53
2022-12-31T08:00:33.940Z,99061.53
2022-12-31T08:03:34.210Z,99056.88
2022-12-31T08:06:12.425Z,99061.94
2022-12-31T08:08:44.163Z,99063.78
2022-12-31T08:11:34.409Z,99066.56
2022-12-31T08:14:02.719Z,99075.13
2022-12-31T08:16:30.504Z,99073.56
2022-12-31T08:18:57.744Z,99073.56
2022-12-31T08:21:57.762Z,99067.31
2022-12-31T08:24:54.741Z,99069.91
2022-12-31T08:27:48.594Z,99069.81
2022-12-31T08:30:19.408Z,99074.88
2022-12-31T08:32:58.121Z,99071.03
2022-12-31T08:36:13.472Z,99078.19
2022-12-31T08:39:03.416Z,99070.75
2022-12-31T08:41:45.972Z,99059.03
2022-12-31T08:44:24.499Z,99070.84
2022-12-31T08:47:00.171Z,99075.22
2022-12-31T08:49:31.121Z,99072.41
2022-12-31T08:51:59.837Z,99069.06
2022-12-31T08:54:27.224Z,99084.78
2022-12-31T08:57:20.788Z,99090.94
2022-12-31T08:59:53.427Z,99096.31
2022-12-31T09:02:48.171Z,99102.19
2022-12-31T09:05:22.748Z,99063.94
2022-12-31T09:07:58.482Z,99113.66
2022-12-31T09:10:53.293Z,99115.41
2022-12-31T09:13:43.567Z,99085.19
2022-12-31T09:16:28.413Z,99105.09
2022-12-31T09:18:55.292Z,99104.13
2022-12-31T09:21:22.316Z,99112.81
2022-12-31T09:23:49.668Z,99091.09
2022-12-31T09:26:40.722Z,99109.53
2022-12-31T09:29:29.377Z,99107.84
2022-12-31T09:32:11.982Z,99114.47
2022-12-31T09:35:29.934Z,99104.09
2022-12-31T09:38:11.259Z,99120.75
2022-12-31T09:41:16.719Z,99109.66
2022-12-31T09:44:52.976Z,99118.88
2022-12-31T09:48:29.663Z,99116.44
2022-12-31T09:51:05.644Z,99112.22
2022-12-31T09:53:42.712Z,99119.84
2022-12-31T09:56:46.012Z,99112.16
2022-12-31T09:59:33.137Z,99113.97
2022-12-31T10:02:24.263Z,99114.75
2022-12-31T10:05:28.698Z,99114.03
2022-12-31T10:08:12.110Z,99103.41
2022-12-31T10:11:12.399Z,99108.41
2022-12-31T10:13:39.134Z,99117.53
2022-12-31T10:16:24.981Z,99105.94
2022-12-31T10:19:43.762Z,99105.94
2022-12-31T10:22:46.820Z,99105.94
2022-12-31T10:25:38.943Z,99106.97
2022-12-31T10:28:39.025Z,99097.81
2022-12-31T10:31:46.363Z,99106.28
2022-12-31T10:34:51.668Z,99101.16
2022-12-31T10:37:28.873Z,99094.72
2022-12-31T10:40:39.236Z,99101.50
2022-12-31T10:43:49.068Z,99090.44
2022-12-31T10:46:38.174Z,99085.72
2022-12-31T10:49:47.850Z,99101.41
2022-12-31T10:52:41.689Z,99092.63
2022-12-31T10:55:38.702Z,99086.69
2022-12-31T10:58:53.046Z,99077.09
2022-12-31T11:01:56.579Z,99076.59
2022-12-31T11:04:53.514Z,99068.69
2022-12-31T11:08:02.644Z,99081.75
2022-12-31T11:11:08.646Z,99071.94
2022-12-31T11:14:26.658Z,99066.97
2022-12-31T11:17:34.466Z,99063.94
2022-12-31T11:20:33.199Z,99060.38
2022-12-31T11:23:48.143Z,99042.97
2022-12-31T11:26:36.415Z,99047.78
2022-12-31T11:29:30.815Z,99048.53
2022-12-31T11:32:18.906Z,99032.41
2022-12-31T11:34:48.683Z,99033.56
2022-12-31T11:37:31.723Z,99033.81
2022-12-31T11:40:31.510Z,99027.72
2022-12-31T11:43:05.018Z,99031.75
2022-12-31T11:46:01.011Z,99024.56
2022-12-31T11:49:18.995Z,99027.31
2022-12-31T11:52:21.630Z,99023.59
2022-12-31T11:55:04.897Z,99010.03
2022-12-31T11:57:38.416Z,99003.03
2022-12-31T12:00:21.317Z,99015.50
2022-12-31T12:02:51.135Z,99023.47
2022-12-31T12:05:23.301Z,99019.09
2022-12-31T12:07:52.553Z,99010.69
2022-12-31T12:10:38.320Z,99012.56
2022-12-31T12:13:23.253Z,99009.72
2022-12-31T12:16:02.914Z,99008.91
2022-12-31T12:18:45.112Z,99001.50
2022-12-31T12:21:24.217Z,98999.53
2022-12-31T12:24:03.846Z,99003.69
2022-12-31T12:26:41.566Z,99004.84
2022-12-31T12:29:22.312Z,99009.72
2022-12-31T12:32:24.950Z,99001.53
2022-12-31T12:34:52.744Z,98997.97
2022-12-31T12:37:30.090Z,98991.66
2022-12-31T12:40:33.362Z,99001.44
2022-12-31T12:43:02.378Z,98998.09
2022-12-31T12:45:51.746Z,98991.44
2022-12-31T12:48:40.304Z,98988.00
2022-12-31T12:51:39.545Z,98995.97
2022-12-31T12:54:51.952Z,98983.94
2022-12-31T12:57:48.890Z,98981.47
2022-12-31T13:00:22.223Z,98978.84
2022-12-31T13:03:34.520Z,98973.22
2022-12-31T13:06:24.454Z,98985.50
2022-12-31T13:09:35.615Z,98985.25
2022-12-31T13:12:42.788Z,98977.03
2022-12-31T13:15:38.910Z,98983.34
2022-12-31T13:18:25.040Z,98984.41
2022-12-31T13:21:22.912Z,98981.44
2022-12-31T13:24:05.178Z,98972.53
2022-12-31T13:26:40.500Z,98974.06
2022-12-31T13:29:19.718Z,98966.22
2022-12-31T13:31:48.965Z,98961.56
2022-12-31T13:34:25.199Z,98958.09
2022-12-31T13:36:54.393Z,98967.50
2022-12-31T13:39:27.588Z,98955.97
2022-12-31T13:42:21.919Z,98957.38
2022-12-31T13:44:56.441Z,98954.53
2022-12-31T13:47:46.917Z,98951.19
2022-12-31T13:50:31.682Z,98934.41
2022-12-31T13:53:07.516Z,98937.84
2022-12-31T13:55:42.521Z,98942.59
2022-12-31T13:58:31.492Z,98938.81
2022-12-31T14:01:16.340Z,98937.38
2022-12-31T14:04:09.308Z,98942.38
2022-12-31T14:07:14.490Z,98948.66
2022-12-31T14:09:42.358Z,98947.84
2022-12-31T14:13:05.456Z,98946.03
2022-12-31T14:15:43.114Z,98941.00
2022-12-31T14:18:32.484Z,98937.81
2022-12-31T14:21:22.755Z,98954.00
2022-12-31T14:24:18.793Z,98958.63
2022-12-31T14:26:52.768Z,98963.03
2022-12-31T14:29:34.087Z,98963.28
2022-12-31T14:32:31.034Z,98969.34
2022-12-31T14:35:54.125Z,98958.44
2022-12-31T14:38:47.404Z,98973.53
2022-12-31T14:41:48.144Z,98970.13
2022-12-31T14:44:36.377Z,98969.97
2022-12-31T14:47:11.980Z,98979.31
2022-12-31T14:49:53.356Z,98976.91
2022-12-31T14:52:31.936Z,98978.22
2022-12-31T14:55:25.135Z,98984.97
2022-12-31T14:58:26.363Z,98989.13
2022-12-31T15:00:52.360Z,98961.69
2022-12-31T15:03:23.336Z,98979.44
2022-12-31T15:06:22.494Z,98972.03
2022-12-31T15:09:39.339Z,98975.03
2022-12-31T15:12:59.814Z,98979.75
2022-12-31T15:15:53.115Z,98984.00
2022-12-31T15:18:44.881Z,98986.19
2022-12-31T15:21:34.800Z,98994.66
2022-12-31T15:24:02.397Z,98991.00
2022-12-31T15:26:31.768Z,98987.88
2022-12-31T15:29:01.417Z,98998.56
2022-12-31T15:31:29.163Z,99001.72
2022-12-31T15:34:01.810Z,98998.88
2022-12-31T15:36:34.452Z,98997.44
2022-12-31T15:39:10.351Z,98995.88
2022-12-31T15:42:27.600Z,98996.00
2022-12-31T15:44:48.448Z,99000.38
2022-12-31T15:47:41.837Z,98995.72
2022-12-31T15:50:17.925Z,99002.22
2022-12-31T15:53:03.664Z,98998.34
2022-12-31T15:55:37.816Z,98996.56
2022-12-31T15:58:11.225Z,98999.44
2022-12-31T16:01:19.685Z,99006.28
2022-12-31T16:04:25.482Z,98999.31
2022-12-31T16:06:53.000Z,99006.94
2022-12-31T16:09:25.662Z,98992.63
2022-12-31T16:11:54.858Z,98980.91
2022-12-31T16:14:44.217Z,99005.69
2022-12-31T16:17:33.119Z,99009.06
2022-12-31T16:20:02.190Z,99012.38
2022-12-31T16:22:37.932Z,99010.63
2022-12-31T16:27:54.982Z,99019.72
2022-12-31T16:30:25.714Z,99019.81
2022-12-31T16:32:56.382Z,99010.94
2022-12-31T16:35:36.442Z,99020.00
2022-12-31T16:38:18.747Z,99023.06
2022-12-31T16:41:03.772Z,99024.28
2022-12-31T16:43:43.106Z,99024.28
2022-12-31T16:46:27.026Z,99027.97
2022-12-31T16:49:00.827Z,99014.81
2022-12-31T16:51:34.214Z,99033.28
2022-12-31T16:54:02.439Z,99030.56
2022-12-31T16:56:41.705Z,99032.13
2022-12-31T16:59:24.144Z,99026.81
2022-12-31T17:01:55.916Z,99013.19
2022-12-31T17:04:24.036Z,99028.75
2022-12-31T17:06:51.018Z,99033.75
2022-12-31T17:09:21.850Z,99040.19
2022-12-31T17:11:56.179Z,99038.81
2022-12-31T17:14:30.431Z,99037.75
2022-12-31T17:17:03.558Z,99043.13
2022-12-31T17:19:56.491Z,99057.50
2022-12-31T17:22:36.240Z,99053.31
2022-12-31T17:25:30.269Z,99051.22
2022-12-31T17:28:06.857Z,99054.28
2022-12-31T17:30:34.530Z,99046.44
2022-12-31T17:33:07.424Z,99047.53
2022-12-31T17:35:37.287Z,99032.88
2022-12-31T17:38:22.258Z,99053.31
2022-12-31T17:40:55.653Z,99043.66
2022-12-31T17:43:23.950Z,99059.75
2022-12-31T17:45:52.775Z,99067.09
2022-12-31T17:48:20.512Z,99071.50
2022-12-31T17:50:56.915Z,99076.34
2022-12-31T17:53:24.141Z,99081.09
2022-12-31T17:55:57.372Z,99069.56
2022-12-31T17:58:42.662Z,99091.13
2022-12-31T18:01:10.337Z,99090.59
2022-12-31T18:03:37.216Z,99083.88
2022-12-31T18:06:05.317Z,99094.66
2022-12-31T18:08:32.228Z,99091.41
2022-12-31T18:10:59.022Z,99074.13
2022-12-31T18:13:27.707Z,99092.78
2022-12-31T18:15:55.226Z,99094.72
2022-12-31T18:18:30.084Z,99090.59
2022-12-31T18:21:06.647Z,99092.53
2022-12-31T18:23:41.829Z,99089.56
2022-12-31T18:26:18.399Z,99092.34
2022-12-31T18:28:46.141Z,99090.00
2022-12-31T18:31:25.268Z,99087.66
2022-12-31T18:33:53.775Z,99097.31
2022-12-31T18:36:21.839Z,99098.41
2022-12-31T18:38:48.916Z,99101.22
2022-12-31T18:41:27.779Z,99101.28
2022-12-31T18:43:55.781Z,99096.19
2022-12-31T18:46:24.632Z,99094.69
2022-12-31T18:48:51.478Z,99092.25
2022-12-31T18:51:25.135Z,99089.84
2022-12-31T18:53:56.597Z,99099.47
2022-12-31T18:56:25.115Z,99068.75
2022-12-31T18:58:52.042Z,99103.09
2022-12-31T19:01:34.691Z,99119.63
2022-12-31T19:04:05.135Z,99112.66
2022-12-31T19:06:32.012Z,99115.47
2022-12-31T19:09:00.823Z,99111.34
2022-12-31T19:11:29.053Z,99120.22
2022-12-31T19:13:55.826Z,99110.00
2022-12-31T19:16:22.650Z,99125.97
2022-12-31T19:18:50.675Z,99131.22
2022-12-31T19:21:22.346Z,99107.91
2022-12-31T19:23:50.518Z,99113.47
2022-12-31T19:26:20.367Z,99126.63
2022-12-31T19:28:48.752Z,99124.34
2022-12-31T19:31:16.446Z,99121.94
2022-12-31T19:33:44.255Z,99119.06
2022-12-31T19:36:19.476Z,99114.22
2022-12-31T19:38:47.295Z,99127.81
2022-12-31T19:41:19.863Z,99131.47
2022-12-31T19:43:47.993Z,99143.88
2022-12-31T19:46:17.789Z,99136.88
2022-12-31T19:48:45.241Z,99130.91
2022-12-31T19:51:17.402Z,99139.47
2022-12-31T19:53:45.708Z,99141.31
2022-12-31T19:56:18.990Z,99136.28
2022-12-31T19:58:46.251Z,99146.50
2022-12-31T20:01:20.930Z,99115.72
2022-12-31T20:03:48.232Z,99143.22
2022-12-31T20:06:15.636Z,99152.94
2022-12-31T20:08:46.433Z,99125.84
2022-12-31T20:11:20.163Z,99139.13
2022-12-31T20:13:49.418Z,99148.84
2022-12-31T20:16:19.019Z,99135.19
2022-12-31T20:18:47.867Z,99143.94
2022-12-31T20:21:19.392Z,99149.16
2022-12-31T20:23:48.563Z,99156.94
2022-12-31T20:26:15.387Z,99149.22
2022-12-31T20:28:42.187Z,99149.47
2022-12-31T20:31:19.163Z,99154.50
2022-12-31T20:33:46.070Z,99155.44
2022-12-31T20:36:15.908Z,99152.25
2022-12-31T20:38:43.159Z,99150.72
2022-12-31T20:41:15.993Z,99160.16
2022-12-31T20:43:43.337Z,99154.06
2022-12-31T20:46:18.962Z,99147.25
2022-12-31T20:48:47.894Z,99145.59
2022-12-31T20:51:16.802Z,99128.13
2022-12-31T20:53:52.006Z,99136.19
2022-12-31T20:56:19.190Z,99134.84
2022-12-31T20:58:46.081Z,99141.72
2022-12-31T21:01:14.214Z,99140.78
2022-12-31T21:06:31.389Z,99101.13
2022-12-31T21:09:00.780Z,99150.06
2022-12-31T21:11:46.573Z,99163.63
2022-12-31T21:14:13.458Z,99167.22
2022-12-31T21:16:40.343Z,99163.88
2022-12-31T21:19:07.241Z,99170.97
2022-12-31T21:21:34.062Z,99168.38
2022-12-31T21:24:00.884Z,99172.81
2022-12-31T21:26:28.910Z,99173.78
2022-12-31T21:28:55.683Z,99169.75
2022-12-31T21:31:22.611Z,99171.50
2022-12-31T21:33:49.521Z,99170.59
2022-12-31T21:36:16.758Z,99176.69
2022-12-31T21:38:44.113Z,99186.31
2022-12-31T21:41:35.052Z,99191.50
2022-12-31T21:44:03.132Z,99182.88
2022-12-31T21:46:30.381Z,99188.13
2022-12-31T21:48:59.508Z,99188.13
2022-12-31T21:51:27.279Z,99198.53
2022-12-31T21:53:54.434Z,99197.81
2022-12-31T21:56:22.466Z,99182.03
2022-12-31T21:59:16.856Z,99196.41
2022-12-31T22:02:02.422Z,99199.97
2022-12-31T22:05:01.384Z,99207.97
2022-12-31T22:07:16.226Z,99201.25
2022-12-31T22:09:43.049Z,99199.63
2022-12-31T22:12:09.842Z,99211.56
2022-12-31T22:14:36.728Z,99208.25
2022-12-31T22:17:03.614Z,99210.94
2022-12-31T22:19:30.492Z,99213.88
2022-12-31T22:21:57.326Z,99224.97
2022-12-31T22:24:24.082Z,99220.00
2022-12-31T22:26:52.075Z,99204.09
2022-12-31T22:29:19.700Z,99221.81
2022-12-31T22:31:46.566Z,99218.59
2022-12-31T22:34:13.363Z,99235.97
2022-12-31T22:36:40.515Z,99238.72
2022-12-31T22:39:10.351Z,99231.03
2022-12-31T22:41:37.312Z,99241.47
2022-12-31T22:44:05.003Z,99244.22
2022-12-31T22:46:33.523Z,99248.56
2022-12-31T22:49:03.077Z,99232.81
2022-12-31T22:51:55.040Z,99249.66
2022-12-31T22:54:18.175Z,99261.75
2022-12-31T22:56:45.046Z,99260.81
2022-12-31T22:59:11.812Z,99261.81
2022-12-31T23:01:38.691Z,99268.72
2022-12-31T23:04:05.615Z,99261.06
2022-12-31T23:06:32.772Z,99253.97
2022-12-31T23:09:18.383Z,99264.09
2022-12-31T23:11:45.183Z,99259.09
2022-12-31T23:14:36.168Z,99256.66
2022-12-31T23:17:30.776Z,99262.81
2022-12-31T23:20:18.828Z,99257.75
2022-12-31T23:23:05.981Z,99261.34
2022-12-31T23:25:34.930Z,99262.94
2022-12-31T23:28:01.834Z,99269.81
2022-12-31T23:30:28.805Z,99268.00
2022-12-31T23:32:55.691Z,99268.00
2022-12-31T23:35:22.488Z,99271.41
2022-12-31T23:37:49.541Z,99261.66
2022-12-31T23:40:21.134Z,99277.09
2022-12-31T23:42:49.659Z,99276.13
2022-12-31T23:45:16.558Z,99271.91
2022-12-31T23:47:43.499Z,99278.69
2022-12-31T23:50:10.493Z,99282.97
2022-12-31T23:52:37.420Z,99285.63
2022-12-31T23:55:04.916Z,99284.88
2022-12-31T23:57:31.851Z,99284.09
2022-12-31T23:59:58.744Z,99278.06
